sensor_id;sensor_type;location;lat;lon;timestamp;P1;durP1;ratioP1;P2;durP2;ratioP2
31716;SDS011;18301;51.076;17.046;2024-03-23T00:56:50;21.63;;;12.43;;
31716;SDS011;18301;51.076;17.046;2024-03-23T01:01:51;22.65;;;13.32;;
31716;SDS011;18301;51.076;17.046;2024-03-23T01:06:51;22.08;;;12.73;;
31716;SDS011;18301;51.076;17.046;2024-03-23T01:11:52;21.15;;;12.10;;
31716;SDS011;18301;51.076;17.046;2024-03-23T01:16:53;21.80;;;12.93;;
31716;SDS011;18301;51.076;17.046;2024-03-23T01:21:53;22.77;;;12.05;;
31716;SDS011;18301;51.076;17.046;2024-03-23T01:26:55;21.40;;;12.05;;
31716;SDS011;18301;51.076;17.046;2024-03-23T01:31:56;25.98;;;13.07;;
31716;SDS011;18301;51.076;17.046;2024-03-23T01:36:56;21.77;;;11.27;;
31716;SDS011;18301;51.076;17.046;2024-03-23T01:41:57;22.40;;;11.85;;
31716;SDS011;18301;51.076;17.046;2024-03-23T01:46:57;18.48;;;11.07;;
31716;SDS011;18301;51.076;17.046;2024-03-23T01:51:58;20.67;;;11.45;;
31716;SDS011;18301;51.076;17.046;2024-03-23T01:56:59;19.63;;;10.50;;
31716;SDS011;18301;51.076;17.046;2024-03-23T02:02:00;21.10;;;11.35;;
31716;SDS011;18301;51.076;17.046;2024-03-23T02:07:01;20.30;;;11.05;;
31716;SDS011;18301;51.076;17.046;2024-03-23T02:12:02;19.42;;;10.50;;
31716;SDS011;18301;51.076;17.046;2024-03-23T02:17:03;19.23;;;11.45;;
31716;SDS011;18301;51.076;17.046;2024-03-23T02:22:04;18.25;;;10.85;;
31716;SDS011;18301;51.076;17.046;2024-03-23T02:27:05;19.13;;;11.38;;
31716;SDS011;18301;51.076;17.046;2024-03-23T02:32:05;18.83;;;10.02;;
31716;SDS011;18301;51.076;17.046;2024-03-23T02:37:10;21.90;;;11.73;;
31716;SDS011;18301;51.076;17.046;2024-03-23T02:42:11;20.08;;;11.60;;
31716;SDS011;18301;51.076;17.046;2024-03-23T02:47:12;22.33;;;11.70;;
31716;SDS011;18301;51.076;17.046;2024-03-23T02:52:13;20.42;;;11.70;;
31716;SDS011;18301;51.076;17.046;2024-03-23T02:57:13;26.23;;;13.30;;
31716;SDS011;18301;51.076;17.046;2024-03-23T03:02:14;25.10;;;13.07;;
31716;SDS011;18301;51.076;17.046;2024-03-23T03:07:16;24.95;;;11.50;;
31716;SDS011;18301;51.076;17.046;2024-03-23T03:12:16;20.90;;;11.73;;
31716;SDS011;18301;51.076;17.046;2024-03-23T03:17:17;17.45;;;10.65;;
31716;SDS011;18301;51.076;17.046;2024-03-23T03:22:19;19.80;;;11.18;;
31716;SDS011;18301;51.076;17.046;2024-03-23T03:27:20;22.00;;;12.00;;
31716;SDS011;18301;51.076;17.046;2024-03-23T03:32:21;24.02;;;13.35;;
31716;SDS011;18301;51.076;17.046;2024-03-23T03:37:22;21.00;;;11.88;;
31716;SDS011;18301;51.076;17.046;2024-03-23T03:42:22;24.83;;;12.60;;
31716;SDS011;18301;51.076;17.046;2024-03-23T03:47:23;21.65;;;11.80;;
31716;SDS011;18301;51.076;17.046;2024-03-23T03:52:24;19.55;;;11.40;;
31716;SDS011;18301;51.076;17.046;2024-03-23T03:57:24;22.45;;;11.65;;
31716;SDS011;18301;51.076;17.046;2024-03-23T04:02:25;20.23;;;11.25;;
31716;SDS011;18301;51.076;17.046;2024-03-23T04:07:25;22.17;;;11.48;;
31716;SDS011;18301;51.076;17.046;2024-03-23T04:12:26;21.85;;;11.30;;
31716;SDS011;18301;51.076;17.046;2024-03-23T04:17:27;21.05;;;11.25;;
31716;SDS011;18301;51.076;17.046;2024-03-23T04:22:32;19.58;;;11.68;;
31716;SDS011;18301;51.076;17.046;2024-03-23T04:27:32;19.30;;;11.07;;
31716;SDS011;18301;51.076;17.046;2024-03-23T04:32:33;22.40;;;11.57;;
31716;SDS011;18301;51.076;17.046;2024-03-23T04:37:34;20.67;;;11.57;;
31716;SDS011;18301;51.076;17.046;2024-03-23T04:42:35;24.02;;;11.93;;
31716;SDS011;18301;51.076;17.046;2024-03-23T04:47:37;25.02;;;12.98;;
31716;SDS011;18301;51.076;17.046;2024-03-23T04:52:38;33.55;;;15.05;;
31716;SDS011;18301;51.076;17.046;2024-03-23T04:57:39;25.90;;;13.43;;
31716;SDS011;18301;51.076;17.046;2024-03-23T05:02:39;26.98;;;13.52;;
31716;SDS011;18301;51.076;17.046;2024-03-23T05:07:40;20.92;;;12.60;;
31716;SDS011;18301;51.076;17.046;2024-03-23T05:12:41;21.17;;;11.90;;
31716;SDS011;18301;51.076;17.046;2024-03-23T05:17:42;20.80;;;11.65;;
31716;SDS011;18301;51.076;17.046;2024-03-23T05:22:43;30.30;;;15.55;;
31716;SDS011;18301;51.076;17.046;2024-03-23T05:27:43;26.80;;;14.77;;
31716;SDS011;18301;51.076;17.046;2024-03-23T05:32:44;30.63;;;16.73;;
31716;SDS011;18301;51.076;17.046;2024-03-23T05:37:45;32.22;;;15.93;;
31716;SDS011;18301;51.076;17.046;2024-03-23T05:42:45;25.05;;;14.25;;
31716;SDS011;18301;51.076;17.046;2024-03-23T05:47:46;28.58;;;15.38;;
31716;SDS011;18301;51.076;17.046;2024-03-23T05:52:47;25.77;;;14.20;;
31716;SDS011;18301;51.076;17.046;2024-03-23T05:57:47;23.23;;;12.55;;
31716;SDS011;18301;51.076;17.046;2024-03-23T06:02:48;21.58;;;12.93;;
31716;SDS011;18301;51.076;17.046;2024-03-23T06:07:48;22.30;;;12.95;;
31716;SDS011;18301;51.076;17.046;2024-03-23T06:12:50;25.20;;;13.50;;
31716;SDS011;18301;51.076;17.046;2024-03-23T06:17:52;22.75;;;13.38;;
31716;SDS011;18301;51.076;17.046;2024-03-23T06:22:53;21.30;;;12.95;;
31716;SDS011;18301;51.076;17.046;2024-03-23T06:27:53;34.92;;;15.98;;
31716;SDS011;18301;51.076;17.046;2024-03-23T06:32:54;30.58;;;15.45;;
31716;SDS011;18301;51.076;17.046;2024-03-23T06:37:55;22.70;;;12.85;;
31716;SDS011;18301;51.076;17.046;2024-03-23T06:42:55;21.70;;;12.40;;
31716;SDS011;18301;51.076;17.046;2024-03-23T06:47:56;21.17;;;12.48;;
31716;SDS011;18301;51.076;17.046;2024-03-23T06:52:58;20.20;;;12.52;;
31716;SDS011;18301;51.076;17.046;2024-03-23T06:57:58;20.42;;;12.68;;
31716;SDS011;18301;51.076;17.046;2024-03-23T07:02:59;21.65;;;12.63;;
31716;SDS011;18301;51.076;17.046;2024-03-23T07:08:00;21.17;;;13.10;;
31716;SDS011;18301;51.076;17.046;2024-03-23T07:13:01;18.17;;;12.00;;
31716;SDS011;18301;51.076;17.046;2024-03-23T07:18:02;19.33;;;11.70;;
31716;SDS011;18301;51.076;17.046;2024-03-23T07:23:03;20.58;;;12.05;;
31716;SDS011;18301;51.076;17.046;2024-03-23T07:28:04;25.70;;;13.68;;
31716;SDS011;18301;51.076;17.046;2024-03-23T07:33:05;20.65;;;12.80;;
31716;SDS011;18301;51.076;17.046;2024-03-23T07:38:06;18.80;;;10.90;;
31716;SDS011;18301;51.076;17.046;2024-03-23T07:43:07;20.50;;;11.15;;
31716;SDS011;18301;51.076;17.046;2024-03-23T07:48:07;22.77;;;12.43;;
31716;SDS011;18301;51.076;17.046;2024-03-23T07:53:08;19.35;;;12.18;;
31716;SDS011;18301;51.076;17.046;2024-03-23T07:58:09;19.13;;;10.02;;
31716;SDS011;18301;51.076;17.046;2024-03-23T08:03:10;15.82;;;10.63;;
31716;SDS011;18301;51.076;17.046;2024-03-23T08:08:10;16.08;;;10.15;;
31716;SDS011;18301;51.076;17.046;2024-03-23T08:13:11;14.85;;;8.88;;
31716;SDS011;18301;51.076;17.046;2024-03-23T08:18:12;16.63;;;10.10;;
31716;SDS011;18301;51.076;17.046;2024-03-23T08:23:13;16.85;;;9.02;;
31716;SDS011;18301;51.076;17.046;2024-03-23T08:28:14;17.85;;;10.32;;
31716;SDS011;18301;51.076;17.046;2024-03-23T08:33:15;16.30;;;9.60;;
31716;SDS011;18301;51.076;17.046;2024-03-23T08:38:16;17.27;;;9.55;;
31716;SDS011;18301;51.076;17.046;2024-03-23T08:43:17;13.93;;;9.30;;
31716;SDS011;18301;51.076;17.046;2024-03-23T08:48:18;16.52;;;10.18;;
31716;SDS011;18301;51.076;17.046;2024-03-23T08:53:20;13.23;;;8.60;;
31716;SDS011;18301;51.076;17.046;2024-03-23T08:58:21;15.60;;;10.20;;
31716;SDS011;18301;51.076;17.046;2024-03-23T09:03:24;15.43;;;9.48;;
31716;SDS011;18301;51.076;17.046;2024-03-23T09:08:25;14.23;;;8.90;;
31716;SDS011;18301;51.076;17.046;2024-03-23T09:13:26;13.07;;;8.57;;
31716;SDS011;18301;51.076;17.046;2024-03-23T09:18:26;16.45;;;9.10;;
31716;SDS011;18301;51.076;17.046;2024-03-23T09:23:27;15.38;;;10.02;;
31716;SDS011;18301;51.076;17.046;2024-03-23T09:28:28;15.82;;;9.93;;
31716;SDS011;18301;51.076;17.046;2024-03-23T09:33:30;13.93;;;8.40;;
31716;SDS011;18301;51.076;17.046;2024-03-23T09:38:31;12.05;;;8.13;;
31716;SDS011;18301;51.076;17.046;2024-03-23T09:43:32;14.18;;;9.00;;
31716;SDS011;18301;51.076;17.046;2024-03-23T09:48:33;14.88;;;9.52;;
31716;SDS011;18301;51.076;17.046;2024-03-23T09:53:33;14.73;;;9.60;;
31716;SDS011;18301;51.076;17.046;2024-03-23T09:58:34;16.85;;;9.75;;
31716;SDS011;18301;51.076;17.046;2024-03-23T10:03:44;13.05;;;8.38;;
31716;SDS011;18301;51.076;17.046;2024-03-23T10:08:45;12.48;;;8.15;;
31716;SDS011;18301;51.076;17.046;2024-03-23T10:13:46;12.32;;;8.63;;
31716;SDS011;18301;51.076;17.046;2024-03-23T10:18:47;14.75;;;8.68;;
31716;SDS011;18301;51.076;17.046;2024-03-23T10:23:48;14.52;;;8.60;;
31716;SDS011;18301;51.076;17.046;2024-03-23T10:28:51;13.40;;;8.75;;
31716;SDS011;18301;51.076;17.046;2024-03-23T10:34:00;11.45;;;8.25;;
31716;SDS011;18301;51.076;17.046;2024-03-23T10:39:01;13.13;;;9.10;;
31716;SDS011;18301;51.076;17.046;2024-03-23T10:44:02;15.32;;;8.95;;
31716;SDS011;18301;51.076;17.046;2024-03-23T10:49:05;13.45;;;9.57;;
31716;SDS011;18301;51.076;17.046;2024-03-23T10:54:07;11.48;;;8.77;;
31716;SDS011;18301;51.076;17.046;2024-03-23T10:59:07;11.10;;;7.93;;
31716;SDS011;18301;51.076;17.046;2024-03-23T11:04:09;10.93;;;7.90;;
31716;SDS011;18301;51.076;17.046;2024-03-23T11:14:34;12.50;;;7.47;;
31716;SDS011;18301;51.076;17.046;2024-03-23T11:19:36;11.32;;;6.75;;
31716;SDS011;18301;51.076;17.046;2024-03-23T11:24:38;11.43;;;7.28;;
31716;SDS011;18301;51.076;17.046;2024-03-23T11:29:38;11.15;;;7.60;;
31716;SDS011;18301;51.076;17.046;2024-03-23T11:34:41;8.70;;;6.00;;
31716;SDS011;18301;51.076;17.046;2024-03-23T11:39:42;7.10;;;5.25;;
31716;SDS011;18301;51.076;17.046;2024-03-23T11:44:45;8.32;;;5.72;;
31716;SDS011;18301;51.076;17.046;2024-03-23T11:49:48;8.45;;;5.63;;
31716;SDS011;18301;51.076;17.046;2024-03-23T11:54:49;9.23;;;5.38;;
31716;SDS011;18301;51.076;17.046;2024-03-23T11:59:49;9.30;;;5.70;;
31716;SDS011;18301;51.076;17.046;2024-03-23T12:04:50;6.47;;;5.60;;
31716;SDS011;18301;51.076;17.046;2024-03-23T12:10:03;7.07;;;5.53;;
31716;SDS011;18301;51.076;17.046;2024-03-23T12:15:07;5.60;;;4.60;;
31716;SDS011;18301;51.076;17.046;2024-03-23T12:20:08;7.28;;;5.20;;
31716;SDS011;18301;51.076;17.046;2024-03-23T12:25:09;6.78;;;4.90;;
31716;SDS011;18301;51.076;17.046;2024-03-23T12:30:10;5.63;;;4.35;;
31716;SDS011;18301;51.076;17.046;2024-03-23T12:35:11;8.35;;;4.38;;
31716;SDS011;18301;51.076;17.046;2024-03-23T12:40:12;10.90;;;4.70;;
31716;SDS011;18301;51.076;17.046;2024-03-23T12:45:12;6.18;;;4.30;;
31716;SDS011;18301;51.076;17.046;2024-03-23T12:50:13;6.50;;;4.32;;
31716;SDS011;18301;51.076;17.046;2024-03-23T12:55:14;4.55;;;3.90;;
31716;SDS011;18301;51.076;17.046;2024-03-23T13:00:14;4.90;;;3.90;;
31716;SDS011;18301;51.076;17.046;2024-03-23T13:05:18;7.10;;;5.10;;
31716;SDS011;18301;51.076;17.046;2024-03-23T13:10:19;7.32;;;4.18;;
31716;SDS011;18301;51.076;17.046;2024-03-23T13:15:20;3.92;;;3.08;;
31716;SDS011;18301;51.076;17.046;2024-03-23T13:20:20;6.10;;;3.78;;
31716;SDS011;18301;51.076;17.046;2024-03-23T13:25:21;5.85;;;4.28;;
31716;SDS011;18301;51.076;17.046;2024-03-23T13:30:22;6.88;;;4.75;;
31716;SDS011;18301;51.076;17.046;2024-03-23T13:35:22;5.97;;;3.88;;
31716;SDS011;18301;51.076;17.046;2024-03-23T13:40:23;7.20;;;4.13;;
31716;SDS011;18301;51.076;17.046;2024-03-23T13:45:23;5.78;;;3.83;;
31716;SDS011;18301;51.076;17.046;2024-03-23T13:50:25;6.15;;;3.05;;
31716;SDS011;18301;51.076;17.046;2024-03-23T13:55:25;5.15;;;3.08;;
31716;SDS011;18301;51.076;17.046;2024-03-23T14:00:26;5.57;;;3.00;;
31716;SDS011;18301;51.076;17.046;2024-03-23T14:05:27;3.95;;;2.80;;
31716;SDS011;18301;51.076;17.046;2024-03-23T14:10:27;2.45;;;2.00;;
31716;SDS011;18301;51.076;17.046;2024-03-23T14:15:28;2.33;;;1.48;;
31716;SDS011;18301;51.076;17.046;2024-03-23T14:20:30;1.42;;;0.93;;
31716;SDS011;18301;51.076;17.046;2024-03-23T14:25:31;1.00;;;0.93;;
31716;SDS011;18301;51.076;17.046;2024-03-23T14:30:31;1.00;;;0.90;;
31716;SDS011;18301;51.076;17.046;2024-03-23T14:35:32;2.75;;;0.77;;
31716;SDS011;18301;51.076;17.046;2024-03-23T14:40:33;0.80;;;0.80;;
31716;SDS011;18301;51.076;17.046;2024-03-23T14:45:34;0.80;;;0.80;;
31716;SDS011;18301;51.076;17.046;2024-03-23T14:50:34;1.08;;;0.70;;
31716;SDS011;18301;51.076;17.046;2024-03-23T14:55:35;6.35;;;2.88;;
31716;SDS011;18301;51.076;17.046;2024-03-23T15:00:36;3.30;;;0.95;;
31716;SDS011;18301;51.076;17.046;2024-03-23T15:05:36;2.03;;;1.20;;
31716;SDS011;18301;51.076;17.046;2024-03-23T15:10:37;1.40;;;1.30;;
31716;SDS011;18301;51.076;17.046;2024-03-23T15:15:39;1.70;;;1.40;;
31716;SDS011;18301;51.076;17.046;2024-03-23T15:20:41;1.40;;;1.25;;
31716;SDS011;18301;51.076;17.046;2024-03-23T15:25:58;1.58;;;1.40;;
31716;SDS011;18301;51.076;17.046;2024-03-23T15:30:59;2.00;;;1.60;;
31716;SDS011;18301;51.076;17.046;2024-03-23T15:36:00;1.20;;;1.10;;
31716;SDS011;18301;51.076;17.046;2024-03-23T15:41:01;1.30;;;1.20;;
31716;SDS011;18301;51.076;17.046;2024-03-23T15:46:03;1.27;;;1.17;;
31716;SDS011;18301;51.076;17.046;2024-03-23T15:51:04;2.42;;;1.70;;
31716;SDS011;18301;51.076;17.046;2024-03-23T15:56:05;1.60;;;1.50;;
31716;SDS011;18301;51.076;17.046;2024-03-23T16:01:07;3.63;;;1.88;;
31716;SDS011;18301;51.076;17.046;2024-03-23T16:06:11;2.50;;;1.88;;
31716;SDS011;18301;51.076;17.046;2024-03-23T16:11:11;2.60;;;1.73;;
31716;SDS011;18301;51.076;17.046;2024-03-23T16:16:12;1.65;;;1.17;;
31716;SDS011;18301;51.076;17.046;2024-03-23T16:21:13;2.00;;;1.48;;
31716;SDS011;18301;51.076;17.046;2024-03-23T16:26:13;1.27;;;1.17;;
31716;SDS011;18301;51.076;17.046;2024-03-23T16:31:16;1.75;;;1.50;;
31716;SDS011;18301;51.076;17.046;2024-03-23T16:36:17;2.30;;;1.77;;
31716;SDS011;18301;51.076;17.046;2024-03-23T16:41:18;2.10;;;1.35;;
31716;SDS011;18301;51.076;17.046;2024-03-23T16:46:19;4.40;;;1.83;;
31716;SDS011;18301;51.076;17.046;2024-03-23T16:51:20;4.15;;;2.50;;
31716;SDS011;18301;51.076;17.046;2024-03-23T16:56:20;4.82;;;2.67;;
31716;SDS011;18301;51.076;17.046;2024-03-23T17:01:21;4.57;;;2.15;;
31716;SDS011;18301;51.076;17.046;2024-03-23T17:06:24;2.88;;;1.80;;
31716;SDS011;18301;51.076;17.046;2024-03-23T17:11:25;3.38;;;2.13;;
31716;SDS011;18301;51.076;17.046;2024-03-23T17:16:26;4.55;;;2.45;;
31716;SDS011;18301;51.076;17.046;2024-03-23T17:21:30;2.80;;;1.80;;
31716;SDS011;18301;51.076;17.046;2024-03-23T17:26:31;6.45;;;3.10;;
31716;SDS011;18301;51.076;17.046;2024-03-23T17:31:32;6.13;;;2.70;;
31716;SDS011;18301;51.076;17.046;2024-03-23T17:36:33;3.30;;;2.08;;
31716;SDS011;18301;51.076;17.046;2024-03-23T17:41:35;8.40;;;2.50;;
31716;SDS011;18301;51.076;17.046;2024-03-23T17:46:37;4.90;;;2.75;;
31716;SDS011;18301;51.076;17.046;2024-03-23T17:51:38;4.22;;;2.30;;
31716;SDS011;18301;51.076;17.046;2024-03-23T17:56:38;4.90;;;1.90;;
31716;SDS011;18301;51.076;17.046;2024-03-23T18:01:39;4.15;;;2.38;;
31716;SDS011;18301;51.076;17.046;2024-03-23T18:06:40;2.90;;;2.22;;
31716;SDS011;18301;51.076;17.046;2024-03-23T18:11:40;3.83;;;2.35;;
31716;SDS011;18301;51.076;17.046;2024-03-23T18:16:41;8.80;;;3.53;;
31716;SDS011;18301;51.076;17.046;2024-03-23T18:21:42;4.47;;;2.95;;
31716;SDS011;18301;51.076;17.046;2024-03-23T18:26:43;9.80;;;3.60;;
31716;SDS011;18301;51.076;17.046;2024-03-23T18:31:43;4.70;;;3.08;;
31716;SDS011;18301;51.076;17.046;2024-03-23T18:36:44;4.50;;;2.90;;
31716;SDS011;18301;51.076;17.046;2024-03-23T18:41:45;6.65;;;2.15;;
31716;SDS011;18301;51.076;17.046;2024-03-23T18:46:45;2.85;;;2.20;;
31716;SDS011;18301;51.076;17.046;2024-03-23T18:51:46;6.88;;;3.40;;
31716;SDS011;18301;51.076;17.046;2024-03-23T18:56:47;7.82;;;3.78;;
31716;SDS011;18301;51.076;17.046;2024-03-23T19:01:47;6.10;;;3.20;;
31716;SDS011;18301;51.076;17.046;2024-03-23T19:06:48;7.32;;;3.17;;
31716;SDS011;18301;51.076;17.046;2024-03-23T19:11:48;6.38;;;3.08;;
31716;SDS011;18301;51.076;17.046;2024-03-23T19:16:49;8.60;;;2.65;;
31716;SDS011;18301;51.076;17.046;2024-03-23T19:21:51;6.80;;;3.05;;
31716;SDS011;18301;51.076;17.046;2024-03-23T19:26:52;6.53;;;3.45;;
31716;SDS011;18301;51.076;17.046;2024-03-23T19:31:52;6.85;;;3.72;;
31716;SDS011;18301;51.076;17.046;2024-03-23T19:36:53;6.68;;;3.85;;
31716;SDS011;18301;51.076;17.046;2024-03-23T19:41:53;8.07;;;4.68;;
31716;SDS011;18301;51.076;17.046;2024-03-23T19:46:54;10.80;;;4.68;;
31716;SDS011;18301;51.076;17.046;2024-03-23T19:51:55;7.80;;;4.20;;
31716;SDS011;18301;51.076;17.046;2024-03-23T19:56:55;9.05;;;5.18;;
31716;SDS011;18301;51.076;17.046;2024-03-23T20:01:56;9.50;;;5.18;;
31716;SDS011;18301;51.076;17.046;2024-03-23T20:06:57;10.35;;;5.38;;
31716;SDS011;18301;51.076;17.046;2024-03-23T20:11:57;10.45;;;5.78;;
31716;SDS011;18301;51.076;17.046;2024-03-23T20:16:59;12.13;;;7.07;;
31716;SDS011;18301;51.076;17.046;2024-03-23T20:22:00;12.07;;;6.65;;
31716;SDS011;18301;51.076;17.046;2024-03-23T20:27:00;13.32;;;6.45;;
31716;SDS011;18301;51.076;17.046;2024-03-23T20:32:01;9.45;;;5.85;;
31716;SDS011;18301;51.076;17.046;2024-03-23T20:37:03;11.48;;;6.25;;
31716;SDS011;18301;51.076;17.046;2024-03-23T20:42:03;18.10;;;8.73;;
31716;SDS011;18301;51.076;17.046;2024-03-23T20:47:05;18.17;;;9.10;;
31716;SDS011;18301;51.076;17.046;2024-03-23T20:52:07;14.90;;;8.00;;
31716;SDS011;18301;51.076;17.046;2024-03-23T20:57:08;12.32;;;6.97;;
31716;SDS011;18301;51.076;17.046;2024-03-23T21:02:09;16.15;;;8.40;;
31716;SDS011;18301;51.076;17.046;2024-03-23T21:07:09;20.00;;;9.38;;
31716;SDS011;18301;51.076;17.046;2024-03-23T21:12:10;23.98;;;11.13;;
31716;SDS011;18301;51.076;17.046;2024-03-23T21:17:11;22.42;;;10.45;;
31716;SDS011;18301;51.076;17.046;2024-03-23T21:22:12;19.95;;;9.85;;
31716;SDS011;18301;51.076;17.046;2024-03-23T21:27:13;21.23;;;10.57;;
31716;SDS011;18301;51.076;17.046;2024-03-23T21:32:13;18.48;;;9.63;;
31716;SDS011;18301;51.076;17.046;2024-03-23T21:37:14;20.48;;;9.27;;
31716;SDS011;18301;51.076;17.046;2024-03-23T21:42:14;19.15;;;8.73;;
31716;SDS011;18301;51.076;17.046;2024-03-23T21:47:15;17.08;;;8.65;;
31716;SDS011;18301;51.076;17.046;2024-03-23T21:52:16;16.88;;;8.38;;
31716;SDS011;18301;51.076;17.046;2024-03-23T21:57:16;17.20;;;8.20;;
31716;SDS011;18301;51.076;17.046;2024-03-23T22:02:17;16.63;;;8.43;;
31716;SDS011;18301;51.076;17.046;2024-03-23T22:07:18;15.90;;;8.85;;
31716;SDS011;18301;51.076;17.046;2024-03-23T22:12:25;19.73;;;9.30;;
31716;SDS011;18301;51.076;17.046;2024-03-23T22:17:26;18.95;;;8.65;;
31716;SDS011;18301;51.076;17.046;2024-03-23T22:22:27;15.93;;;8.00;;
31716;SDS011;18301;51.076;17.046;2024-03-23T22:27:28;16.85;;;7.88;;
31716;SDS011;18301;51.076;17.046;2024-03-23T22:32:29;16.70;;;8.23;;
31716;SDS011;18301;51.076;17.046;2024-03-23T22:37:30;15.35;;;7.25;;
31716;SDS011;18301;51.076;17.046;2024-03-23T22:42:31;14.18;;;6.20;;
31716;SDS011;18301;51.076;17.046;2024-03-23T22:47:31;13.40;;;6.03;;
31716;SDS011;18301;51.076;17.046;2024-03-23T22:52:32;11.25;;;5.43;;
31716;SDS011;18301;51.076;17.046;2024-03-23T22:57:32;10.25;;;4.88;;
31716;SDS011;18301;51.076;17.046;2024-03-23T23:02:33;8.45;;;5.05;;
31716;SDS011;18301;51.076;17.046;2024-03-23T23:07:34;9.57;;;5.00;;
31716;SDS011;18301;51.076;17.046;2024-03-23T23:12:35;9.02;;;5.35;;
31716;SDS011;18301;51.076;17.046;2024-03-23T23:17:36;10.57;;;5.00;;
31716;SDS011;18301;51.076;17.046;2024-03-23T23:22:36;12.15;;;5.60;;
31716;SDS011;18301;51.076;17.046;2024-03-23T23:27:37;8.93;;;5.30;;
31716;SDS011;18301;51.076;17.046;2024-03-23T23:32:39;9.15;;;5.28;;
31716;SDS011;18301;51.076;17.046;2024-03-23T23:37:39;13.63;;;6.20;;
31716;SDS011;18301;51.076;17.046;2024-03-23T23:42:40;11.32;;;5.43;;
31716;SDS011;18301;51.076;17.046;2024-03-23T23:47:41;8.50;;;5.00;;
31716;SDS011;18301;51.076;17.046;2024-03-23T23:52:41;11.05;;;6.07;;
31716;SDS011;18301;51.076;17.046;2024-03-23T23:57:43;9.88;;;5.40;;
